createdAt,value
2017-10-05T00:00:12.708Z,82.74
2017-10-05T00:01:15.224Z,82.91
2017-10-05T00:02:17.249Z,82.51
2017-10-05T00:03:19.201Z,81.77
2017-10-05T00:04:21.139Z,81.48
2017-10-05T00:05:23.138Z,81.49
2017-10-05T00:06:25.877Z,81.88
2017-10-05T00:07:27.897Z,81.11
2017-10-05T00:08:29.930Z,81.53
2017-10-05T00:09:31.890Z,81.43
2017-10-05T00:10:33.828Z,82.27
2017-10-05T00:11:37.921Z,81.18
2017-10-05T00:12:39.834Z,80.92
2017-10-05T00:13:41.681Z,80.30
2017-10-05T00:14:43.626Z,80.44
2017-10-05T00:15:45.577Z,80.04
2017-10-05T00:16:47.623Z,80.19
2017-10-05T00:17:49.511Z,80.27
2017-10-05T00:18:51.479Z,79.98
2017-10-05T00:19:53.498Z,79.52
2017-10-05T00:20:55.407Z,80.08
2017-10-05T00:22:00.087Z,80.34
2017-10-05T00:23:02.011Z,79.60
2017-10-05T00:24:04.013Z,79.80
2017-10-05T00:25:06.479Z,79.40
2017-10-05T00:26:08.353Z,79.55
2017-10-05T00:27:10.381Z,79.76
2017-10-05T00:28:12.342Z,79.96
2017-10-05T00:29:14.271Z,80.03
2017-10-05T00:30:16.164Z,79.57
2017-10-05T00:31:18.082Z,79.16
2017-10-05T00:32:20.048Z,79.17
2017-10-05T00:33:21.961Z,79.21
2017-10-05T00:34:23.955Z,79.25
2017-10-05T00:35:25.881Z,79.22
2017-10-05T00:36:27.782Z,79.57
2017-10-05T00:37:29.732Z,78.85
2017-10-05T00:38:31.720Z,79.29
2017-10-05T00:39:33.723Z,79.79
2017-10-05T00:40:35.689Z,80.04
2017-10-05T00:41:37.635Z,79.35
2017-10-05T00:42:39.598Z,79.48
2017-10-05T00:43:41.509Z,79.58
2017-10-05T00:44:43.500Z,80.04
2017-10-05T00:45:45.448Z,80.43
2017-10-05T00:46:47.417Z,79.45
2017-10-05T00:47:49.410Z,80.00
2017-10-05T00:48:51.828Z,79.60
2017-10-05T00:49:57.430Z,79.65
2017-10-05T00:50:59.320Z,79.71
2017-10-05T00:52:01.273Z,80.05
2017-10-05T00:53:03.322Z,80.00
2017-10-05T00:54:05.266Z,80.21
2017-10-05T00:55:07.214Z,80.51
2017-10-05T00:56:09.257Z,80.70
2017-10-05T00:57:11.224Z,80.81
2017-10-05T00:58:13.260Z,80.73
2017-10-05T00:59:17.273Z,81.05
2017-10-05T01:00:19.173Z,80.72
2017-10-05T01:01:21.110Z,80.88
2017-10-05T01:02:22.558Z,81.06
2017-10-05T01:03:23.952Z,80.81
2017-10-05T01:04:27.877Z,81.08
2017-10-05T01:05:29.825Z,81.21
2017-10-05T01:06:31.792Z,81.39
2017-10-05T01:07:33.657Z,80.97
2017-10-05T01:08:36.157Z,80.61
2017-10-05T01:09:38.032Z,81.16
2017-10-05T01:10:39.959Z,80.58
2017-10-05T01:11:41.891Z,81.04
2017-10-05T01:12:47.807Z,81.33
2017-10-05T01:13:49.831Z,80.65
2017-10-05T01:14:51.842Z,80.63
2017-10-05T01:15:53.812Z,80.57
2017-10-05T01:16:55.749Z,80.56
2017-10-05T01:17:58.336Z,80.67
2017-10-05T01:19:00.328Z,80.73
2017-10-05T01:20:02.262Z,81.21
2017-10-05T01:21:04.241Z,80.64
2017-10-05T01:22:06.212Z,80.55
2017-10-05T01:23:08.153Z,80.82
2017-10-05T01:24:10.125Z,80.49
2017-10-05T01:25:12.085Z,80.40
2017-10-05T01:26:14.036Z,80.11
2017-10-05T01:27:16.014Z,80.29
2017-10-05T01:28:17.945Z,80.55
2017-10-05T01:29:20.903Z,80.62
2017-10-05T01:30:22.947Z,81.13
2017-10-05T01:31:24.892Z,81.04
2017-10-05T01:32:26.801Z,80.87
2017-10-05T01:33:28.891Z,80.82
2017-10-05T01:34:30.913Z,80.95
2017-10-05T01:35:32.836Z,80.78
2017-10-05T01:36:34.788Z,81.07
2017-10-05T01:37:36.750Z,80.72
2017-10-05T01:38:38.663Z,81.23
2017-10-05T01:39:40.641Z,80.73
2017-10-05T01:40:43.480Z,80.79
2017-10-05T01:41:45.490Z,80.52
2017-10-05T01:42:47.414Z,80.38
2017-10-05T01:43:49.374Z,80.68
2017-10-05T01:44:51.435Z,80.57
2017-10-05T01:45:53.384Z,80.68
2017-10-05T01:46:55.286Z,80.98
2017-10-05T01:47:57.314Z,80.73
2017-10-05T01:48:59.266Z,80.72
2017-10-05T01:50:04.070Z,80.40
2017-10-05T01:51:06.148Z,80.42
2017-10-05T01:52:08.174Z,80.51
2017-10-05T01:53:10.342Z,80.33
2017-10-05T01:54:12.301Z,80.44
2017-10-05T01:55:14.311Z,80.60
2017-10-05T01:56:16.730Z,80.17
2017-10-05T01:57:19.045Z,80.67
2017-10-05T01:58:21.039Z,80.38
2017-10-05T01:59:23.109Z,80.54
2017-10-05T02:00:25.099Z,80.71
2017-10-05T02:01:27.033Z,80.80
2017-10-05T02:02:29.037Z,80.73
2017-10-05T02:03:31.007Z,80.75
2017-10-05T02:04:32.892Z,80.64
2017-10-05T02:05:34.864Z,81.02
2017-10-05T02:06:36.935Z,80.72
2017-10-05T02:07:38.863Z,80.89
2017-10-05T02:08:40.797Z,80.94
2017-10-05T02:09:43.566Z,81.10
2017-10-05T02:10:45.546Z,81.03
2017-10-05T02:11:47.640Z,81.02
2017-10-05T02:12:49.570Z,81.32
2017-10-05T02:13:51.506Z,81.16
2017-10-05T02:14:54.099Z,81.33
2017-10-05T02:15:56.098Z,81.52
2017-10-05T02:16:58.029Z,81.12
2017-10-05T02:17:59.928Z,81.28
2017-10-05T02:19:01.813Z,81.60
2017-10-05T02:20:03.729Z,81.32
2017-10-05T02:21:07.653Z,81.31
2017-10-05T02:22:09.615Z,81.48
2017-10-05T02:23:11.534Z,81.80
2017-10-05T02:24:13.521Z,81.63
2017-10-05T02:25:15.385Z,81.77
2017-10-05T02:26:17.440Z,81.69
2017-10-05T02:27:19.375Z,81.91
2017-10-05T02:28:21.903Z,81.50
2017-10-05T02:29:27.313Z,81.76
2017-10-05T02:30:29.272Z,81.73
2017-10-05T02:31:34.585Z,81.90
2017-10-05T02:32:36.511Z,81.60
2017-10-05T02:33:38.568Z,81.91
2017-10-05T02:34:40.503Z,81.49
2017-10-05T02:35:42.345Z,81.62
2017-10-05T02:36:44.343Z,81.72
2017-10-05T02:37:46.234Z,82.13
2017-10-05T02:38:48.610Z,81.67
2017-10-05T02:39:51.432Z,81.59
2017-10-05T02:40:54.041Z,81.66
2017-10-05T02:41:55.975Z,81.35
2017-10-05T02:42:57.865Z,81.37
2017-10-05T02:43:59.904Z,81.64
2017-10-05T02:45:02.654Z,81.49
2017-10-05T02:46:06.059Z,81.67
2017-10-05T02:47:09.069Z,81.88
2017-10-05T02:48:12.210Z,82.09
2017-10-05T02:49:15.548Z,82.21
2017-10-05T02:50:19.104Z,82.51
2017-10-05T02:51:22.313Z,82.50
2017-10-05T02:52:25.412Z,81.96
2017-10-05T02:53:29.548Z,82.06
2017-10-05T02:54:33.670Z,82.12
2017-10-05T02:55:37.715Z,81.96
2017-10-05T02:56:41.705Z,82.64
2017-10-05T02:57:46.719Z,82.63
2017-10-05T02:58:51.057Z,82.56
2017-10-05T02:59:54.310Z,82.15
2017-10-05T03:00:56.737Z,82.70
2017-10-05T03:01:58.639Z,82.82
2017-10-05T03:03:01.832Z,83.08
2017-10-05T03:04:06.107Z,83.10
2017-10-05T03:05:10.556Z,83.29
2017-10-05T03:06:13.562Z,83.25
2017-10-05T03:07:17.082Z,84.10
2017-10-05T03:08:19.517Z,84.91
2017-10-05T03:09:22.996Z,85.74
2017-10-05T03:10:26.539Z,87.28
2017-10-05T03:11:29.781Z,87.90
2017-10-05T03:12:33.003Z,87.67
2017-10-05T03:13:35.911Z,88.98
2017-10-05T03:14:40.021Z,88.63
2017-10-05T03:15:43.218Z,89.66
2017-10-05T03:16:46.532Z,88.92
2017-10-05T03:17:50.887Z,89.86
2017-10-05T03:18:54.790Z,89.75
2017-10-05T03:19:58.176Z,90.32
2017-10-05T03:21:05.696Z,89.11
2017-10-05T03:22:09.855Z,89.08
2017-10-05T03:23:14.484Z,89.46
2017-10-05T03:24:18.174Z,89.62
2017-10-05T03:25:21.231Z,89.84
2017-10-05T03:26:24.286Z,89.86
2017-10-05T03:27:27.195Z,90.31
2017-10-05T03:28:29.954Z,90.52
2017-10-05T03:29:36.435Z,91.16
2017-10-05T03:30:40.859Z,91.59
2017-10-05T03:31:43.898Z,92.03
2017-10-05T03:32:46.763Z,92.38
2017-10-05T03:33:49.234Z,93.42
2017-10-05T03:34:51.186Z,94.45
2017-10-05T03:35:53.113Z,93.99
2017-10-05T03:36:55.053Z,93.04
2017-10-05T03:37:56.953Z,93.28
2017-10-05T03:38:58.889Z,93.97
2017-10-05T03:40:00.835Z,94.50
2017-10-05T03:41:02.951Z,94.86
2017-10-05T03:42:04.853Z,94.23
2017-10-05T03:43:06.860Z,94.66
2017-10-05T03:44:08.903Z,95.06
2017-10-05T03:45:13.011Z,94.95
2017-10-05T03:46:14.944Z,95.78
2017-10-05T03:47:16.979Z,96.05
2017-10-05T03:48:18.993Z,95.43
2017-10-05T03:49:20.927Z,95.48
2017-10-05T03:50:22.971Z,95.88
2017-10-05T03:51:24.927Z,96.35
2017-10-05T03:52:26.882Z,96.36
2017-10-05T03:53:28.891Z,95.99
2017-10-05T03:54:30.932Z,96.15
2017-10-05T03:55:32.883Z,96.44
2017-10-05T03:56:34.997Z,96.45
2017-10-05T03:57:36.916Z,96.07
2017-10-05T03:58:38.936Z,96.52
2017-10-05T03:59:40.904Z,96.60
2017-10-05T04:00:42.925Z,97.14
2017-10-05T04:01:44.908Z,96.39
2017-10-05T04:02:47.160Z,95.89
2017-10-05T04:03:49.166Z,96.42
2017-10-05T04:04:51.081Z,95.96
2017-10-05T04:05:53.065Z,95.95
2017-10-05T04:06:55.034Z,96.36
2017-10-05T04:07:56.997Z,96.76
2017-10-05T04:08:58.928Z,97.39
2017-10-05T04:10:00.873Z,97.44
2017-10-05T04:11:03.229Z,97.67
2017-10-05T04:12:05.326Z,97.23
2017-10-05T04:13:07.325Z,97.85
2017-10-05T04:14:09.195Z,98.45
2017-10-05T04:15:11.179Z,98.10
2017-10-05T04:16:13.216Z,97.65
2017-10-05T04:17:15.672Z,98.12
2017-10-05T04:18:17.570Z,98.85
2017-10-05T04:19:19.511Z,99.75
2017-10-05T04:20:21.476Z,99.53
2017-10-05T04:21:23.533Z,100.00
2017-10-05T04:22:25.438Z,100.00
2017-10-05T04:23:27.374Z,100.00
2017-10-05T04:24:29.377Z,100.00
2017-10-05T04:25:31.434Z,100.00
2017-10-05T04:26:33.380Z,100.00
2017-10-05T04:27:35.311Z,100.00
2017-10-05T04:28:37.216Z,100.00
2017-10-05T04:29:39.133Z,100.00
2017-10-05T04:30:41.060Z,100.00
2017-10-05T04:31:43.028Z,100.00
2017-10-05T04:32:44.972Z,100.00
2017-10-05T04:33:46.899Z,100.00
2017-10-05T04:34:48.870Z,100.00
2017-10-05T04:35:50.809Z,100.00
2017-10-05T04:36:52.797Z,100.00
2017-10-05T04:37:54.698Z,100.00
2017-10-05T04:38:57.376Z,100.00
2017-10-05T04:39:59.277Z,100.00
2017-10-05T04:41:01.198Z,100.00
2017-10-05T04:42:03.143Z,100.00
2017-10-05T04:43:05.603Z,100.00
2017-10-05T04:44:07.621Z,100.00
2017-10-05T04:45:09.656Z,100.00
2017-10-05T04:46:11.597Z,100.00
2017-10-05T04:47:13.766Z,100.00
2017-10-05T04:48:16.107Z,100.00
2017-10-05T04:49:18.388Z,100.00
2017-10-05T04:50:20.881Z,100.00
2017-10-05T04:51:23.295Z,100.00
2017-10-05T04:52:25.847Z,100.00
2017-10-05T04:53:27.848Z,100.00
2017-10-05T04:54:29.817Z,100.00
2017-10-05T04:55:32.200Z,100.00
2017-10-05T04:56:34.921Z,100.00
2017-10-05T04:57:37.079Z,100.00
2017-10-05T04:58:39.072Z,100.00
2017-10-05T04:59:40.959Z,100.00
2017-10-05T05:00:43.138Z,100.00
2017-10-05T05:01:45.415Z,100.00
2017-10-05T05:02:48.056Z,100.00
2017-10-05T05:03:50.051Z,100.00
2017-10-05T05:04:51.982Z,100.00
2017-10-05T05:05:53.908Z,100.00
2017-10-05T05:06:59.553Z,100.00
2017-10-05T05:08:01.482Z,100.00
2017-10-05T05:09:03.998Z,100.00
2017-10-05T05:10:05.953Z,100.00
2017-10-05T05:11:07.873Z,100.00
2017-10-05T05:12:09.845Z,100.00
2017-10-05T05:13:11.796Z,100.00
2017-10-05T05:14:13.732Z,100.00
2017-10-05T05:15:15.653Z,100.00
2017-10-05T05:16:17.622Z,100.00
2017-10-05T05:17:19.488Z,100.00
2017-10-05T05:18:21.438Z,100.00
2017-10-05T05:19:23.363Z,100.00
2017-10-05T05:20:25.226Z,100.00
2017-10-05T05:21:27.113Z,100.00
2017-10-05T05:22:29.022Z,100.00
2017-10-05T05:23:31.075Z,100.00
2017-10-05T05:24:32.984Z,100.00
2017-10-05T05:25:34.869Z,100.00
2017-10-05T05:26:36.808Z,100.00
2017-10-05T05:27:38.791Z,100.00
2017-10-05T05:28:40.812Z,100.00
2017-10-05T05:29:43.820Z,100.00
2017-10-05T05:30:46.986Z,100.00
2017-10-05T05:31:48.924Z,100.00
2017-10-05T05:32:50.935Z,100.00
2017-10-05T05:33:52.892Z,100.00
2017-10-05T05:34:54.940Z,100.00
2017-10-05T05:35:56.932Z,100.00
2017-10-05T05:36:58.973Z,100.00
2017-10-05T05:38:00.933Z,100.00
2017-10-05T05:39:02.862Z,100.00
2017-10-05T05:40:05.145Z,100.00
2017-10-05T05:41:07.110Z,100.00
2017-10-05T05:42:09.020Z,100.00
2017-10-05T05:43:10.949Z,100.00
2017-10-05T05:44:12.941Z,100.00
2017-10-05T05:45:14.854Z,100.00
2017-10-05T05:46:16.847Z,100.00
2017-10-05T05:47:18.818Z,100.00
2017-10-05T05:48:20.850Z,100.00
2017-10-05T05:49:22.837Z,100.00
2017-10-05T05:50:24.774Z,100.00
2017-10-05T05:51:26.674Z,100.00
2017-10-05T05:52:28.586Z,100.00
2017-10-05T05:53:30.479Z,100.00
2017-10-05T05:54:32.481Z,100.00
2017-10-05T05:55:34.409Z,100.00
2017-10-05T05:56:36.339Z,100.00
2017-10-05T05:57:38.312Z,100.00
2017-10-05T05:58:40.313Z,100.00
2017-10-05T05:59:42.327Z,100.00
2017-10-05T06:00:44.214Z,100.00
2017-10-05T06:01:46.291Z,100.00
2017-10-05T06:02:48.198Z,100.00
2017-10-05T06:03:50.143Z,100.00
2017-10-05T06:04:52.153Z,100.00
2017-10-05T06:05:54.086Z,100.00
2017-10-05T06:06:56.009Z,100.00
2017-10-05T06:07:57.962Z,100.00
2017-10-05T06:08:59.872Z,100.00
2017-10-05T06:10:01.875Z,100.00
2017-10-05T06:11:04.265Z,100.00
2017-10-05T06:12:06.194Z,100.00
2017-10-05T06:13:08.137Z,100.00
2017-10-05T06:14:10.048Z,100.00
2017-10-05T06:15:12.009Z,100.00
2017-10-05T06:16:13.901Z,100.00
2017-10-05T06:17:15.801Z,100.00
2017-10-05T06:18:20.917Z,100.00
2017-10-05T06:19:22.909Z,100.00
2017-10-05T06:20:24.929Z,100.00
2017-10-05T06:21:26.853Z,100.00
2017-10-05T06:22:28.772Z,100.00
2017-10-05T06:23:30.734Z,100.00
2017-10-05T06:24:32.663Z,100.00
2017-10-05T06:25:34.639Z,100.00
2017-10-05T06:26:36.593Z,100.00
2017-10-05T06:27:38.496Z,100.00
2017-10-05T06:28:40.444Z,100.00
2017-10-05T06:29:42.305Z,100.00
2017-10-05T06:30:44.229Z,100.00
2017-10-05T06:31:46.283Z,100.00
2017-10-05T06:32:48.187Z,100.00
2017-10-05T06:33:53.033Z,100.00
2017-10-05T06:34:54.944Z,100.00
2017-10-05T06:35:56.908Z,100.00
2017-10-05T06:36:58.799Z,100.00
2017-10-05T06:38:00.737Z,100.00
2017-10-05T06:39:02.671Z,100.00
2017-10-05T06:40:04.609Z,100.00
2017-10-05T06:41:06.538Z,100.00
2017-10-05T06:42:11.705Z,100.00
2017-10-05T06:43:13.675Z,100.00
2017-10-05T06:44:15.578Z,100.00
2017-10-05T06:45:17.441Z,100.00
2017-10-05T06:46:19.377Z,100.00
2017-10-05T06:47:21.276Z,100.00
2017-10-05T06:48:23.183Z,100.00
2017-10-05T06:49:27.901Z,100.00
2017-10-05T06:50:29.771Z,100.00
2017-10-05T06:51:35.405Z,100.00
2017-10-05T06:52:37.314Z,100.00
2017-10-05T06:53:39.228Z,100.00
2017-10-05T06:54:41.178Z,100.00
2017-10-05T06:55:45.672Z,100.00
2017-10-05T06:56:47.689Z,100.00
2017-10-05T06:57:49.630Z,100.00
2017-10-05T06:58:51.776Z,100.00
2017-10-05T06:59:53.691Z,100.00
2017-10-05T07:00:55.575Z,100.00
2017-10-05T07:01:57.574Z,100.00
2017-10-05T07:02:59.501Z,100.00
2017-10-05T07:04:01.416Z,100.00
2017-10-05T07:05:03.315Z,100.00
2017-10-05T07:06:05.207Z,100.00
2017-10-05T07:07:07.227Z,100.00
2017-10-05T07:08:09.460Z,100.00
2017-10-05T07:09:11.408Z,100.00
2017-10-05T07:10:14.367Z,100.00
2017-10-05T07:11:16.258Z,100.00
2017-10-05T07:12:18.202Z,100.00
2017-10-05T07:13:20.107Z,100.00
2017-10-05T07:14:21.995Z,100.00
2017-10-05T07:15:23.886Z,100.00
2017-10-05T07:16:25.778Z,100.00
2017-10-05T07:17:27.729Z,100.00
2017-10-05T07:18:29.621Z,100.00
2017-10-05T07:19:31.642Z,100.00
2017-10-05T07:20:33.546Z,100.00
2017-10-05T07:21:35.476Z,100.00
2017-10-05T07:22:37.388Z,100.00
2017-10-05T07:23:39.273Z,100.00
2017-10-05T07:24:41.147Z,100.00
2017-10-05T07:25:43.031Z,100.00
2017-10-05T07:26:44.920Z,100.00
2017-10-05T07:27:46.855Z,100.00
2017-10-05T07:28:49.760Z,100.00
2017-10-05T07:29:51.630Z,100.00
2017-10-05T07:30:53.506Z,100.00
2017-10-05T07:31:55.444Z,100.00
2017-10-05T07:32:57.384Z,100.00
2017-10-05T07:33:59.287Z,100.00
2017-10-05T07:35:01.281Z,100.00
2017-10-05T07:36:03.176Z,100.00
2017-10-05T07:37:05.131Z,100.00
2017-10-05T07:38:07.095Z,100.00
2017-10-05T07:39:09.036Z,100.00
2017-10-05T07:40:11.013Z,100.00
2017-10-05T07:41:12.927Z,100.00
2017-10-05T07:42:14.817Z,100.00
2017-10-05T07:43:16.787Z,100.00
2017-10-05T07:44:18.711Z,100.00
2017-10-05T07:45:20.661Z,100.00
2017-10-05T07:46:22.639Z,100.00
2017-10-05T07:47:24.593Z,100.00
2017-10-05T07:48:26.566Z,100.00
2017-10-05T07:49:28.508Z,100.00
2017-10-05T07:50:30.395Z,100.00
2017-10-05T07:51:32.326Z,100.00
2017-10-05T07:52:34.274Z,100.00
2017-10-05T07:53:36.282Z,100.00
2017-10-05T07:54:38.247Z,100.00
2017-10-05T07:55:40.184Z,100.00
2017-10-05T07:56:42.129Z,100.00
2017-10-05T07:57:44.061Z,100.00
2017-10-05T07:58:46.096Z,100.00
2017-10-05T07:59:48.012Z,100.00
2017-10-05T08:00:49.903Z,100.00
2017-10-05T08:01:51.809Z,100.00
2017-10-05T08:02:53.747Z,100.00
2017-10-05T08:03:55.765Z,100.00
2017-10-05T08:04:57.715Z,100.00
2017-10-05T08:05:59.903Z,100.00
2017-10-05T08:07:01.826Z,100.00
2017-10-05T08:08:03.657Z,100.00
2017-10-05T08:09:05.656Z,100.00
2017-10-05T08:10:07.740Z,100.00
2017-10-05T08:11:09.659Z,100.00
2017-10-05T08:12:11.565Z,100.00
2017-10-05T08:13:13.482Z,100.00
2017-10-05T08:14:15.429Z,100.00
2017-10-05T08:15:17.392Z,100.00
2017-10-05T08:16:19.309Z,100.00
2017-10-05T08:17:21.262Z,100.00
2017-10-05T08:18:23.160Z,100.00
2017-10-05T08:19:25.082Z,100.00
2017-10-05T08:20:26.952Z,100.00
2017-10-05T08:21:28.810Z,100.00
2017-10-05T08:22:30.693Z,100.00
2017-10-05T08:23:32.637Z,100.00
2017-10-05T08:24:34.564Z,100.00
2017-10-05T08:25:36.459Z,100.00
2017-10-05T08:26:38.390Z,100.00
2017-10-05T08:27:40.290Z,100.00
2017-10-05T08:28:42.202Z,100.00
2017-10-05T08:29:44.178Z,100.00
2017-10-05T08:30:48.088Z,100.00
2017-10-05T08:31:49.970Z,100.00
2017-10-05T08:32:51.826Z,100.00
2017-10-05T08:33:53.763Z,100.00
2017-10-05T08:34:55.669Z,100.00
2017-10-05T08:35:57.592Z,100.00
2017-10-05T08:36:59.512Z,100.00
2017-10-05T08:38:01.383Z,100.00
2017-10-05T08:39:03.332Z,100.00
2017-10-05T08:40:05.366Z,100.00
2017-10-05T08:41:07.249Z,100.00
2017-10-05T08:42:09.143Z,100.00
2017-10-05T08:43:11.063Z,100.00
2017-10-05T08:44:13.017Z,100.00
2017-10-05T08:45:15.065Z,100.00
2017-10-05T08:46:20.660Z,100.00
2017-10-05T08:47:22.526Z,100.00
2017-10-05T08:48:24.555Z,100.00
2017-10-05T08:49:26.506Z,100.00
2017-10-05T08:50:28.482Z,100.00
2017-10-05T08:51:30.490Z,100.00
2017-10-05T08:52:32.421Z,100.00
2017-10-05T08:53:34.309Z,100.00
2017-10-05T08:54:36.324Z,100.00
2017-10-05T08:55:38.292Z,100.00
2017-10-05T08:56:40.254Z,100.00
2017-10-05T08:57:42.173Z,100.00
2017-10-05T08:58:44.128Z,100.00
2017-10-05T08:59:46.118Z,100.00
2017-10-05T09:00:48.073Z,100.00
2017-10-05T09:01:49.994Z,100.00
2017-10-05T09:02:51.929Z,100.00
2017-10-05T09:03:53.891Z,100.00
2017-10-05T09:04:55.825Z,100.00
2017-10-05T09:05:57.785Z,100.00
2017-10-05T09:06:59.681Z,100.00
2017-10-05T09:08:01.583Z,100.00
2017-10-05T09:09:03.519Z,100.00
2017-10-05T09:10:05.456Z,100.00
2017-10-05T09:11:07.449Z,100.00
2017-10-05T09:12:09.377Z,100.00
2017-10-05T09:13:11.263Z,100.00
2017-10-05T09:14:13.146Z,100.00
2017-10-05T09:15:15.063Z,100.00
2017-10-05T09:16:17.072Z,100.00
2017-10-05T09:17:19.167Z,100.00
2017-10-05T09:18:21.129Z,100.00
2017-10-05T09:19:23.085Z,100.00
2017-10-05T09:20:25.015Z,100.00
2017-10-05T09:21:26.989Z,100.00
2017-10-05T09:22:28.946Z,100.00
2017-10-05T09:23:30.911Z,100.00
2017-10-05T09:24:32.838Z,100.00
2017-10-05T09:25:34.852Z,100.00
2017-10-05T09:26:37.161Z,100.00
2017-10-05T09:27:39.821Z,100.00
2017-10-05T09:28:41.785Z,100.00
2017-10-05T09:29:43.685Z,100.00
2017-10-05T09:30:45.601Z,100.00
2017-10-05T09:31:47.590Z,100.00
2017-10-05T09:32:49.730Z,100.00
2017-10-05T09:33:51.710Z,100.00
2017-10-05T09:34:53.632Z,100.00
2017-10-05T09:35:55.509Z,100.00
2017-10-05T09:36:57.458Z,100.00
2017-10-05T09:37:59.965Z,100.00
2017-10-05T09:39:03.381Z,100.00
2017-10-05T09:40:08.554Z,100.00
2017-10-05T09:41:10.494Z,100.00
2017-10-05T09:42:12.433Z,100.00
2017-10-05T09:43:14.378Z,100.00
2017-10-05T09:44:20.274Z,100.00
2017-10-05T09:45:23.206Z,100.00
2017-10-05T09:46:25.152Z,100.00
2017-10-05T09:47:27.119Z,100.00
2017-10-05T09:48:29.143Z,100.00
2017-10-05T09:49:31.059Z,100.00
2017-10-05T09:50:33.349Z,99.64
2017-10-05T09:51:35.229Z,100.00
2017-10-05T09:52:37.186Z,99.15
2017-10-05T09:53:39.120Z,99.31
2017-10-05T09:54:41.017Z,98.92
2017-10-05T09:55:42.925Z,99.60
2017-10-05T09:56:48.461Z,98.84
2017-10-05T09:57:50.387Z,98.52
2017-10-05T09:58:52.314Z,98.23
2017-10-05T09:59:54.321Z,98.88
2017-10-05T10:00:56.247Z,98.69
2017-10-05T10:01:58.175Z,98.33
2017-10-05T10:03:00.137Z,97.23
2017-10-05T10:04:02.070Z,97.86
2017-10-05T10:05:05.979Z,98.32
2017-10-05T10:06:08.978Z,97.60
2017-10-05T10:07:10.907Z,97.12
2017-10-05T10:08:12.803Z,97.58
2017-10-05T10:09:15.616Z,97.46
2017-10-05T10:10:18.430Z,97.08
2017-10-05T10:11:20.387Z,97.84
2017-10-05T10:12:23.320Z,97.39
2017-10-05T10:13:26.085Z,96.45
2017-10-05T10:14:28.073Z,96.03
2017-10-05T10:15:29.942Z,95.87
2017-10-05T10:16:31.939Z,95.94
2017-10-05T10:17:33.878Z,95.88
2017-10-05T10:18:35.859Z,95.22
2017-10-05T10:19:37.798Z,95.65
2017-10-05T10:20:39.721Z,95.10
2017-10-05T10:21:41.689Z,95.66
2017-10-05T10:22:43.614Z,95.28
2017-10-05T10:23:45.563Z,96.58
2017-10-05T10:24:47.508Z,95.78
2017-10-05T10:25:49.364Z,95.38
2017-10-05T10:26:51.308Z,93.07
2017-10-05T10:27:53.227Z,93.69
2017-10-05T10:28:55.184Z,94.86
2017-10-05T10:29:57.441Z,95.44
2017-10-05T10:30:59.405Z,95.96
2017-10-05T10:32:01.246Z,95.00
2017-10-05T10:33:04.049Z,94.37
2017-10-05T10:34:06.113Z,94.78
2017-10-05T10:35:08.536Z,93.62
2017-10-05T10:36:14.886Z,93.28
2017-10-05T10:37:18.002Z,93.19
2017-10-05T10:38:19.905Z,92.90
2017-10-05T10:39:21.845Z,93.73
2017-10-05T10:40:23.736Z,92.85
2017-10-05T10:41:26.377Z,92.14
2017-10-05T10:42:28.297Z,93.43
2017-10-05T10:43:30.305Z,92.82
2017-10-05T10:44:32.311Z,92.86
2017-10-05T10:45:34.262Z,93.39
2017-10-05T10:46:36.179Z,92.56
2017-10-05T10:47:38.113Z,92.48
2017-10-05T10:48:40.091Z,93.17
2017-10-05T10:49:42.301Z,92.80
2017-10-05T10:50:44.282Z,92.17
2017-10-05T10:51:51.656Z,91.77
2017-10-05T10:54:01.132Z,92.35
2017-10-05T10:55:03.142Z,92.15
2017-10-05T10:56:05.117Z,92.51
2017-10-05T10:57:07.458Z,91.60
2017-10-05T10:58:09.422Z,91.99
2017-10-05T10:59:11.346Z,91.02
2017-10-05T11:00:13.323Z,91.79
2017-10-05T11:01:15.249Z,91.40
2017-10-05T11:02:17.277Z,91.75
2017-10-05T11:03:19.282Z,92.73
2017-10-05T11:04:21.248Z,91.79
2017-10-05T11:05:23.467Z,91.69
2017-10-05T11:06:27.778Z,91.33
2017-10-05T11:07:30.120Z,91.56
2017-10-05T11:08:32.238Z,91.65
2017-10-05T11:09:35.721Z,92.02
2017-10-05T11:10:37.720Z,91.60
2017-10-05T11:11:40.573Z,90.98
2017-10-05T11:12:42.695Z,91.09
2017-10-05T11:13:44.639Z,91.28
2017-10-05T11:14:48.351Z,90.84
2017-10-05T11:15:50.307Z,91.07
2017-10-05T11:16:52.241Z,91.08
2017-10-05T11:17:54.230Z,90.27
2017-10-05T11:18:56.262Z,90.12
2017-10-05T11:19:59.132Z,89.70
2017-10-05T11:21:03.086Z,89.37
2017-10-05T11:22:05.004Z,89.05
2017-10-05T11:23:06.950Z,90.12
2017-10-05T11:24:08.910Z,90.20
2017-10-05T11:25:13.911Z,89.61
2017-10-05T11:26:15.938Z,90.04
2017-10-05T11:27:18.064Z,89.67
2017-10-05T11:28:21.257Z,89.02
2017-10-05T11:29:23.164Z,89.25
2017-10-05T11:30:25.099Z,89.88
2017-10-05T11:31:27.081Z,90.03
2017-10-05T11:32:32.906Z,88.56
2017-10-05T11:33:35.563Z,89.11
2017-10-05T11:34:37.565Z,89.08
2017-10-05T11:35:39.460Z,89.09
2017-10-05T11:36:43.286Z,88.79
2017-10-05T11:37:45.189Z,88.31
2017-10-05T11:38:47.154Z,88.00
2017-10-05T11:39:49.138Z,87.83
2017-10-05T11:40:51.072Z,87.75
2017-10-05T11:41:53.680Z,87.70
2017-10-05T11:42:55.633Z,88.23
2017-10-05T11:43:57.570Z,87.86
2017-10-05T11:44:59.473Z,86.86
2017-10-05T11:46:01.348Z,87.05
2017-10-05T11:47:03.387Z,87.25
2017-10-05T11:49:18.491Z,86.41
2017-10-05T11:50:20.430Z,86.93
2017-10-05T11:51:23.182Z,86.50
2017-10-05T11:52:25.703Z,86.42
2017-10-05T11:53:28.041Z,85.97
2017-10-05T11:54:31.735Z,86.24
2017-10-05T11:55:33.839Z,85.90
2017-10-05T11:56:35.817Z,85.39
2017-10-05T11:57:38.474Z,85.12
2017-10-05T11:58:44.430Z,85.61
2017-10-05T11:59:47.107Z,85.77
2017-10-05T12:00:49.058Z,85.93
2017-10-05T12:01:50.958Z,85.39
2017-10-05T12:02:52.857Z,84.79
2017-10-05T12:03:55.394Z,84.88
2017-10-05T12:04:57.381Z,85.39
2017-10-05T12:05:59.327Z,85.20
2017-10-05T12:07:01.444Z,84.55
2017-10-05T12:08:04.249Z,84.77
2017-10-05T12:09:06.342Z,84.25
2017-10-05T12:10:08.855Z,84.97
2017-10-05T12:11:12.693Z,84.28
2017-10-05T12:12:14.607Z,84.83
2017-10-05T12:13:16.603Z,84.71
2017-10-05T12:14:18.514Z,84.64
2017-10-05T12:15:21.158Z,83.93
2017-10-05T12:16:28.365Z,84.10
2017-10-05T12:17:31.213Z,83.98
2017-10-05T12:18:36.358Z,83.83
2017-10-05T12:19:38.662Z,83.33
2017-10-05T12:20:40.657Z,83.18
2017-10-05T12:21:42.526Z,83.22
2017-10-05T12:22:44.401Z,83.48
2017-10-05T12:23:46.424Z,83.21
2017-10-05T12:24:49.721Z,82.54
2017-10-05T12:25:54.148Z,82.38
2017-10-05T12:26:59.278Z,82.38
2017-10-05T12:28:01.145Z,82.90
2017-10-05T12:29:03.772Z,82.72
2017-10-05T12:30:07.761Z,82.15
2017-10-05T12:31:12.769Z,82.22
2017-10-05T12:32:14.715Z,82.18
2017-10-05T12:33:16.647Z,81.98
2017-10-05T12:34:18.589Z,82.93
2017-10-05T12:35:20.460Z,81.59
2017-10-05T12:36:22.519Z,81.01
2017-10-05T12:37:27.156Z,80.43
2017-10-05T12:38:29.717Z,79.85
2017-10-05T12:39:32.639Z,79.91
2017-10-05T12:40:34.545Z,79.41
2017-10-05T12:41:38.499Z,79.40
2017-10-05T12:42:40.425Z,78.95
2017-10-05T12:43:43.505Z,78.32
2017-10-05T12:44:46.589Z,77.62
2017-10-05T12:45:48.525Z,77.67
2017-10-05T12:46:50.472Z,76.92
2017-10-05T12:48:05.482Z,76.19
2017-10-05T12:49:07.366Z,76.12
2017-10-05T12:50:09.988Z,74.47
2017-10-05T12:51:18.737Z,75.96
2017-10-05T12:52:23.524Z,76.09
2017-10-05T12:53:26.326Z,75.36
2017-10-05T12:54:28.229Z,74.01
2017-10-05T12:55:30.855Z,74.34
2017-10-05T12:56:32.914Z,74.24
2017-10-05T12:57:41.652Z,74.57
2017-10-05T12:58:45.339Z,75.60
2017-10-05T12:59:47.326Z,76.82
2017-10-05T13:00:50.978Z,77.12
2017-10-05T13:01:53.709Z,77.25
2017-10-05T13:02:55.678Z,76.03
2017-10-05T13:03:57.687Z,74.54
2017-10-05T13:04:59.650Z,74.28
2017-10-05T13:06:02.768Z,74.19
2017-10-05T13:07:08.445Z,75.44
2017-10-05T13:08:10.352Z,76.48
2017-10-05T13:09:12.206Z,76.10
2017-10-05T13:10:14.118Z,75.32
2017-10-05T13:11:18.761Z,73.25
2017-10-05T13:12:22.582Z,72.89
2017-10-05T13:13:25.925Z,71.96
2017-10-05T13:14:28.769Z,72.38